createdAt,value
2019-03-28T00:01:46.217Z,6.90
2019-03-28T00:06:51.444Z,6.80
2019-03-28T00:11:55.634Z,6.90
2019-03-28T00:16:59.812Z,6.90
2019-03-28T00:22:05.971Z,7.00
2019-03-28T00:27:11.187Z,7.00
2019-03-28T00:32:16.287Z,7.00
2019-03-28T00:37:20.462Z,6.90
2019-03-28T00:42:25.210Z,6.90
2019-03-28T00:47:29.855Z,6.90
2019-03-28T00:52:34.070Z,6.90
2019-03-28T00:57:41.516Z,6.90
2019-03-28T01:02:49.225Z,6.90
2019-03-28T01:07:56.940Z,6.90
2019-03-28T01:13:01.369Z,6.90
2019-03-28T01:18:08.773Z,7.00
2019-03-28T01:23:12.885Z,7.00
2019-03-28T01:28:18.298Z,7.00
2019-03-28T01:33:23.942Z,7.00
2019-03-28T01:38:28.553Z,7.00
2019-03-28T01:43:33.196Z,7.00
2019-03-28T01:48:37.553Z,6.90
2019-03-28T01:53:42.062Z,6.90
2019-03-28T01:58:47.644Z,6.90
2019-03-28T02:03:51.799Z,6.90
2019-03-28T02:08:55.933Z,7.00
2019-03-28T02:14:00.406Z,7.00
2019-03-28T02:19:04.558Z,7.00
2019-03-28T02:24:08.697Z,7.00
2019-03-28T02:29:13.051Z,7.00
2019-03-28T02:34:17.773Z,7.00
2019-03-28T02:39:22.214Z,7.00
2019-03-28T02:44:26.708Z,7.00
2019-03-28T02:49:31.153Z,7.10
2019-03-28T02:54:36.702Z,7.10
2019-03-28T02:59:43.873Z,7.10
2019-03-28T03:04:49.256Z,7.10
2019-03-28T03:09:53.781Z,7.20
2019-03-28T03:14:58.211Z,7.10
2019-03-28T03:20:02.944Z,7.10
2019-03-28T03:25:08.695Z,7.10
2019-03-28T03:30:13.845Z,7.10
2019-03-28T03:35:17.969Z,7.20
2019-03-28T03:40:22.118Z,7.20
2019-03-28T03:45:27.087Z,7.20
2019-03-28T03:50:31.232Z,7.20
2019-03-28T03:55:36.080Z,7.20
2019-03-28T04:00:41.017Z,7.20
2019-03-28T04:05:45.166Z,7.20
2019-03-28T04:10:50.153Z,7.10
2019-03-28T04:15:54.346Z,7.10
2019-03-28T04:20:58.530Z,7.10
2019-03-28T04:26:02.666Z,7.00
2019-03-28T04:31:06.959Z,6.90
2019-03-28T04:36:11.613Z,6.90
2019-03-28T04:41:15.777Z,6.80
2019-03-28T04:46:20.865Z,6.80
2019-03-28T04:51:25.098Z,6.80
2019-03-28T04:56:29.272Z,6.80
2019-03-28T05:01:33.814Z,6.90
2019-03-28T05:06:38.211Z,6.90
2019-03-28T05:11:42.585Z,7.00
2019-03-28T05:16:46.997Z,7.00
2019-03-28T05:21:52.061Z,7.00
2019-03-28T05:26:58.331Z,7.00
2019-03-28T05:32:03.116Z,7.00
2019-03-28T05:37:07.524Z,7.10
2019-03-28T05:42:11.983Z,7.10
2019-03-28T05:47:16.254Z,7.20
2019-03-28T05:52:20.421Z,7.20
2019-03-28T05:57:25.431Z,7.20
2019-03-28T06:02:30.923Z,7.20
2019-03-28T06:07:35.091Z,7.20
2019-03-28T06:12:39.828Z,7.30
2019-03-28T06:17:44.818Z,7.30
2019-03-28T06:22:48.946Z,7.40
2019-03-28T06:27:55.333Z,7.30
2019-03-28T06:32:59.434Z,7.30
2019-03-28T06:38:03.593Z,7.30
2019-03-28T06:43:08.852Z,7.50
2019-03-28T06:48:15.783Z,7.60
2019-03-28T06:53:20.169Z,7.80
2019-03-28T06:58:24.305Z,7.90
2019-03-28T07:03:29.571Z,8.00
2019-03-28T07:08:34.053Z,8.30
2019-03-28T07:13:38.360Z,8.50
2019-03-28T07:18:42.495Z,8.70
2019-03-28T07:23:46.912Z,8.80
2019-03-28T07:28:54.207Z,8.60
2019-03-28T07:33:59.708Z,8.50
2019-03-28T07:39:06.142Z,8.80
2019-03-28T07:44:11.437Z,9.00
2019-03-28T07:49:15.594Z,8.90
2019-03-28T07:54:19.942Z,9.20
2019-03-28T07:59:24.078Z,8.90
2019-03-28T08:04:29.176Z,9.00
2019-03-28T08:09:36.773Z,9.10
2019-03-28T08:14:39.870Z,9.00
2019-03-28T08:19:44.881Z,9.00
2019-03-28T08:24:49.016Z,9.10
2019-03-28T08:29:53.264Z,9.20
2019-03-28T08:34:58.761Z,9.30
2019-03-28T08:40:04.845Z,9.50
2019-03-28T08:45:09.525Z,9.70
2019-03-28T08:50:13.994Z,9.80
2019-03-28T08:55:18.139Z,10.30
2019-03-28T09:00:33.047Z,10.40
2019-03-28T09:05:28.350Z,10.30
2019-03-28T09:10:32.894Z,9.90
2019-03-28T09:15:43.531Z,9.90
2019-03-28T09:20:43.577Z,9.80
2019-03-28T09:25:47.655Z,9.80
2019-03-28T09:30:51.831Z,10.20
2019-03-28T09:35:56.082Z,10.40
2019-03-28T09:41:00.241Z,11.00
2019-03-28T09:46:05.828Z,11.20
2019-03-28T09:51:10.060Z,11.60
2019-03-28T09:56:15.828Z,11.50
2019-03-28T10:01:21.162Z,11.70
2019-03-28T10:06:25.252Z,11.90
2019-03-28T10:11:29.564Z,12.00
2019-03-28T10:16:35.566Z,12.10
2019-03-28T10:21:40.930Z,12.50
2019-03-28T10:26:45.054Z,12.90
2019-03-28T10:31:49.193Z,12.80
2019-03-28T10:36:54.505Z,12.90
2019-03-28T10:41:58.736Z,13.20
2019-03-28T10:47:04.859Z,13.20
2019-03-28T10:52:12.105Z,13.00
2019-03-28T10:57:29.429Z,13.60
2019-03-28T11:02:24.123Z,13.60
2019-03-28T11:07:28.252Z,14.10
2019-03-28T11:12:33.176Z,13.80
2019-03-28T11:17:38.625Z,13.30
2019-03-28T11:27:46.532Z,13.20
2019-03-28T11:37:54.771Z,13.20
2019-03-28T11:43:00.195Z,13.30
2019-03-28T11:48:05.248Z,12.80
2019-03-28T11:53:09.293Z,12.40
2019-03-28T11:58:14.419Z,12.30
2019-03-28T12:03:18.958Z,12.50
2019-03-28T12:13:28.976Z,12.90
2019-03-28T12:18:33.137Z,13.40
2019-03-28T12:23:39.088Z,14.40
2019-03-28T12:28:43.641Z,15.10
2019-03-28T12:33:47.789Z,14.90
2019-03-28T12:38:52.600Z,14.00
2019-03-28T12:43:57.723Z,13.60
2019-03-28T12:49:01.829Z,13.40
2019-03-28T12:54:06.330Z,14.10
2019-03-28T12:59:10.434Z,15.30
2019-03-28T13:04:15.449Z,15.90
2019-03-28T13:09:20.553Z,15.10
2019-03-28T13:14:25.271Z,15.10
2019-03-28T13:19:29.406Z,14.80
2019-03-28T13:24:34.472Z,14.70
2019-03-28T13:29:38.895Z,14.50
2019-03-28T13:34:43.281Z,14.60
2019-03-28T13:39:47.433Z,13.90
2019-03-28T13:44:51.590Z,13.90
2019-03-28T13:49:56.041Z,14.00
2019-03-28T13:55:00.667Z,13.90
2019-03-28T14:00:09.386Z,14.30
2019-03-28T14:05:14.167Z,14.70
2019-03-28T14:10:22.284Z,14.30
2019-03-28T14:15:26.722Z,13.90
2019-03-28T14:20:31.027Z,13.70
2019-03-28T14:25:36.828Z,13.10
2019-03-28T14:30:42.887Z,13.00
2019-03-28T14:35:48.330Z,13.20
2019-03-28T14:40:52.388Z,13.80
2019-03-28T14:45:56.602Z,14.00
2019-03-28T14:51:01.447Z,14.40
2019-03-28T14:56:05.705Z,14.50
2019-03-28T15:01:11.098Z,14.60
2019-03-28T15:06:15.224Z,15.00
2019-03-28T15:11:20.666Z,14.70
2019-03-28T15:16:24.855Z,14.00
2019-03-28T15:21:29.038Z,13.30
2019-03-28T15:26:33.220Z,12.90
2019-03-28T15:31:37.827Z,12.80
2019-03-28T15:36:43.243Z,12.60
2019-03-28T15:41:47.357Z,13.30
2019-03-28T15:46:52.667Z,15.20
2019-03-28T15:51:56.939Z,13.80
2019-03-28T15:57:01.133Z,13.30
2019-03-28T16:02:06.808Z,12.00
2019-03-28T16:07:11.835Z,12.20
2019-03-28T16:12:16.073Z,12.00
2019-03-28T16:17:20.283Z,12.00
2019-03-28T16:22:25.881Z,11.70
2019-03-28T16:27:31.255Z,11.60
2019-03-28T16:32:36.059Z,11.90
2019-03-28T16:37:40.322Z,11.80
2019-03-28T16:42:44.397Z,16.20
2019-03-28T16:47:48.536Z,13.40
2019-03-28T16:57:57.478Z,11.30
2019-03-28T17:03:02.236Z,10.80
2019-03-28T17:13:11.434Z,9.90
2019-03-28T17:33:31.886Z,9.10
2019-03-28T17:49:04.487Z,8.60
2019-03-28T17:59:16.053Z,8.40
2019-03-28T18:04:23.221Z,8.20
2019-03-28T18:09:28.715Z,8.10
2019-03-28T18:19:41.952Z,8.00
2019-03-28T18:29:50.916Z,7.90
2019-03-28T18:35:05.012Z,7.80
2019-03-28T18:40:04.173Z,7.70
2019-03-28T18:45:08.400Z,7.60
2019-03-28T18:50:13.512Z,7.30
2019-03-28T19:00:23.938Z,7.20
2019-03-28T19:15:37.038Z,6.80
2019-03-28T19:20:41.214Z,6.80
2019-03-28T19:25:46.892Z,6.80
2019-03-28T19:30:51.397Z,6.80
2019-03-28T19:41:01.436Z,6.90
2019-03-28T19:46:06.039Z,6.90
2019-03-28T20:06:22.695Z,6.60
2019-03-28T20:21:38.557Z,6.20
2019-03-28T20:31:50.179Z,5.90
2019-03-28T20:36:55.123Z,5.80
2019-03-28T20:42:00.063Z,5.70
2019-03-28T21:02:19.034Z,5.20
2019-03-28T21:17:34.021Z,5.10
2019-03-28T21:32:55.163Z,4.80
2019-03-28T21:43:01.900Z,4.70
2019-03-28T21:48:06.524Z,4.80
2019-03-28T22:13:28.574Z,4.60
2019-03-28T22:23:38.171Z,4.50
2019-03-28T22:38:52.486Z,4.30
2019-03-28T22:43:56.642Z,4.30
2019-03-28T22:49:00.809Z,4.30
2019-03-28T22:59:09.171Z,4.20
2019-03-28T23:24:30.465Z,4.20
2019-03-28T23:29:34.596Z,4.20
2019-03-28T23:39:42.683Z,4.10
2019-03-28T23:54:56.090Z,4.00
